Time;durP1;ratioP1;P1;durP2;ratioP2;P2;SDS_P1;SDS_P2;PMS_P1;PMS_P2;Temp;Humidity;BMP_temperature;BMP_pressure;BME280_temperature;BME280_humidity;BME280_pressure;Samples;Min_cycle;Max_cycle;Signal;HPM_P1;HPM_P2
2023/04/19 00:00:41;;;;;;;16.33;11.20;;;8.40;99.90;;;;;;5019295;28;20120;-84
2023/04/19 00:03:08;;;;;;;16.55;11.60;;;8.40;99.90;;;;;;5019818;28;20053;-82
2023/04/19 00:05:37;;;;;;;16.23;11.38;;;8.40;99.90;;;;;;5019599;28;20103;-84
2023/04/19 00:08:04;;;;;;;13.98;10.85;;;8.40;99.90;;;;;;5019364;28;20379;-84
2023/04/19 00:10:30;;;;;;;15.80;10.85;;;8.40;99.90;;;;;;5035984;28;20049;-84
2023/04/19 00:12:56;;;;;;;16.92;10.65;;;8.40;99.90;;;;;;5019564;28;20048;-85
2023/04/19 00:15:22;;;;;;;14.07;10.40;;;8.40;99.90;;;;;;5019491;28;20045;-83
2023/04/19 00:17:48;;;;;;;16.77;11.20;;;8.40;99.90;;;;;;5035440;28;20128;-84
2023/04/19 00:20:14;;;;;;;15.15;10.70;;;8.30;99.90;;;;;;5002240;28;20479;-82
2023/04/19 00:22:40;;;;;;;14.27;10.65;;;8.30;99.90;;;;;;5019114;28;20063;-84
2023/04/19 00:25:06;;;;;;;15.68;10.65;;;8.30;99.90;;;;;;5035180;28;20072;-83
2023/04/19 00:27:32;;;;;;;16.40;10.85;;;8.30;99.90;;;;;;5018746;28;20045;-83
2023/04/19 00:29:57;;;;;;;15.35;11.02;;;8.30;99.90;;;;;;5019123;28;20111;-83
2023/04/19 00:32:23;;;;;;;14.43;10.27;;;8.30;99.90;;;;;;5019094;28;20045;-83
2023/04/19 00:34:49;;;;;;;13.00;9.90;;;8.20;99.90;;;;;;5035507;28;20057;-83
2023/04/19 00:37:15;;;;;;;14.80;10.10;;;8.20;99.90;;;;;;5035222;28;20053;-83
2023/04/19 00:39:41;;;;;;;13.93;9.65;;;8.20;99.90;;;;;;5035532;28;20471;-83
2023/04/19 00:42:06;;;;;;;15.20;9.95;;;8.10;99.90;;;;;;5035148;28;20124;-84
2023/04/19 00:44:32;;;;;;;15.25;10.05;;;8.10;99.90;;;;;;5035474;28;20133;-83
2023/04/19 00:46:59;;;;;;;14.18;9.60;;;8.10;99.90;;;;;;5035144;28;20042;-84
2023/04/19 00:49:26;;;;;;;13.73;9.70;;;8.10;99.90;;;;;;5018756;28;20111;-82
2023/04/19 00:51:52;;;;;;;15.35;9.80;;;8.10;99.90;;;;;;5018481;28;20052;-82
2023/04/19 00:54:18;;;;;;;13.32;9.55;;;8.10;99.90;;;;;;5035008;28;20045;-83
2023/04/19 00:56:45;;;;;;;12.38;9.40;;;8.10;99.90;;;;;;5034845;28;20061;-83
2023/04/19 00:59:13;;;;;;;14.77;9.60;;;8.10;99.90;;;;;;5034744;28;20115;-82
2023/04/19 01:01:40;;;;;;;15.05;9.90;;;8.10;99.90;;;;;;5034773;28;20119;-83
2023/04/19 01:04:08;;;;;;;13.05;9.40;;;8.10;99.90;;;;;;5034599;28;20574;-83
2023/04/19 01:06:36;;;;;;;14.35;9.65;;;8.10;99.90;;;;;;5034868;28;20049;-83
2023/04/19 01:09:02;;;;;;;13.20;9.50;;;8.10;99.90;;;;;;5018591;28;20041;-82
2023/04/19 01:11:28;;;;;;;15.02;9.43;;;8.00;99.90;;;;;;5034594;28;20041;-83
2023/04/19 01:13:55;;;;;;;12.38;9.18;;;8.00;99.90;;;;;;5018350;28;20057;-83
2023/04/19 01:16:21;;;;;;;14.57;9.18;;;8.00;99.90;;;;;;5034474;28;20053;-84
2023/04/19 01:18:46;;;;;;;12.70;9.30;;;7.90;99.90;;;;;;5017707;28;20053;-83
2023/04/19 01:21:12;;;;;;;13.32;8.95;;;7.90;99.90;;;;;;5034523;28;20056;-83
2023/04/19 01:23:38;;;;;;;12.48;8.52;;;8.00;99.90;;;;;;5034412;28;20049;-84
2023/04/19 01:26:04;;;;;;;13.93;8.80;;;8.00;99.90;;;;;;5034667;28;20099;-83
2023/04/19 01:28:33;;;;;;;13.88;9.07;;;8.00;99.90;;;;;;5033918;28;20103;-83
2023/04/19 01:30:59;;;;;;;13.75;9.48;;;8.00;99.90;;;;;;5034544;28;20057;-82
2023/04/19 01:33:25;;;;;;;13.70;9.65;;;8.00;99.90;;;;;;5001409;28;20045;-82
2023/04/19 01:35:51;;;;;;;14.82;9.43;;;7.90;99.90;;;;;;5034206;28;20085;-82
2023/04/19 01:38:17;;;;;;;15.13;9.27;;;7.90;99.90;;;;;;5034424;28;20053;-82
2023/04/19 01:40:43;;;;;;;14.52;9.52;;;7.80;99.90;;;;;;5033953;28;20045;-83
2023/04/19 01:43:12;;;;;;;13.00;9.38;;;7.80;99.90;;;;;;5017823;28;20544;-82
2023/04/19 01:45:40;;;;;;;14.38;9.88;;;7.70;99.90;;;;;;5017702;28;20080;-82
2023/04/19 01:48:06;;;;;;;13.75;9.07;;;7.60;99.90;;;;;;5033963;28;20076;-82
2023/04/19 01:50:32;;;;;;;18.67;9.63;;;7.70;99.90;;;;;;5017083;28;20084;-82
2023/04/19 01:52:59;;;;;;;14.38;9.55;;;7.60;99.90;;;;;;5017385;28;20049;-82
2023/04/19 01:55:25;;;;;;;14.63;9.77;;;7.60;99.90;;;;;;5033993;28;20053;-82
2023/04/19 01:57:53;;;;;;;12.60;8.82;;;7.60;99.90;;;;;;5017514;28;20059;-82
2023/04/19 02:00:20;;;;;;;13.30;9.75;;;7.60;99.90;;;;;;5034003;28;20053;-82
2023/04/19 02:02:46;;;;;;;12.45;8.48;;;7.50;99.90;;;;;;5017626;28;20087;-82
2023/04/19 02:05:11;;;;;;;14.52;8.63;;;7.50;99.90;;;;;;5033494;28;20434;-82
2023/04/19 02:07:37;;;;;;;12.88;8.98;;;7.50;99.90;;;;;;5033358;28;20136;-82
2023/04/19 02:10:04;;;;;;;11.43;8.15;;;7.50;99.90;;;;;;5033581;28;20053;-83
2023/04/19 02:12:32;;;;;;;11.85;8.60;;;7.40;99.90;;;;;;5033716;28;20460;-83
2023/04/19 02:15:00;;;;;;;13.40;9.00;;;7.40;99.90;;;;;;5033622;28;20506;-82
2023/04/19 02:17:26;;;;;;;12.48;8.80;;;7.40;99.90;;;;;;5017497;28;20049;-83
2023/04/19 02:19:52;;;;;;;14.38;9.25;;;7.30;99.90;;;;;;5033054;28;20125;-82
2023/04/19 02:22:19;;;;;;;13.63;8.90;;;7.20;99.90;;;;;;5033327;28;20048;-82
2023/04/19 02:24:46;;;;;;;13.10;8.73;;;7.20;99.90;;;;;;5033456;28;20536;-82
2023/04/19 02:27:12;;;;;;;13.27;9.35;;;7.20;99.90;;;;;;5033116;28;20053;-82
2023/04/19 02:29:38;;;;;;;13.82;9.10;;;7.20;99.90;;;;;;5033137;28;20408;-82
2023/04/19 02:32:05;;;;;;;12.40;9.27;;;7.20;99.90;;;;;;5016922;28;20047;-83
2023/04/19 02:34:34;;;;;;;12.50;9.18;;;7.20;99.90;;;;;;5033283;28;20056;-83
2023/04/19 02:37:01;;;;;;;13.90;9.13;;;7.20;99.90;;;;;;5033252;28;20060;-82
2023/04/19 02:39:26;;;;;;;14.25;9.77;;;7.20;99.90;;;;;;5033335;28;20183;-83
2023/04/19 02:41:53;;;;;;;14.00;9.43;;;7.10;99.90;;;;;;5033027;28;20132;-83
2023/04/19 02:44:18;;;;;;;14.73;10.23;;;7.10;99.90;;;;;;5033071;28;20806;-82
2023/04/19 02:46:51;;;;;;;14.43;9.98;;;7.00;99.90;;;;;;5033036;28;20136;-83
2023/04/19 02:49:18;;;;;;;14.23;10.00;;;7.00;99.90;;;;;;5016355;28;20084;-82
2023/04/19 02:51:44;;;;;;;14.20;10.20;;;7.00;99.90;;;;;;5033033;28;20045;-82
2023/04/19 02:54:10;;;;;;;15.05;10.48;;;6.90;99.90;;;;;;5032941;28;20055;-82
2023/04/19 02:56:36;;;;;;;13.63;9.85;;;6.90;99.90;;;;;;5032605;28;20548;-82
2023/04/19 02:59:03;;;;;;;16.60;11.20;;;6.80;99.90;;;;;;5032892;28;20180;-82
2023/04/19 03:01:30;;;;;;;14.52;10.90;;;6.70;99.90;;;;;;5032911;28;20136;-82
2023/04/19 03:03:56;;;;;;;18.17;11.23;;;6.70;99.90;;;;;;5032545;28;20056;-82
2023/04/19 03:06:22;;;;;;;17.38;11.07;;;6.60;99.90;;;;;;5032799;28;20050;-82
2023/04/19 03:08:48;;;;;;;17.33;11.27;;;6.50;99.90;;;;;;5032427;28;20120;-82
2023/04/19 03:11:16;;;;;;;16.60;11.32;;;6.50;99.90;;;;;;5032717;28;20550;-82
2023/04/19 03:13:42;;;;;;;16.30;11.32;;;6.40;99.90;;;;;;5032684;28;20092;-82
2023/04/19 03:16:08;;;;;;;16.83;11.00;;;6.40;99.90;;;;;;5032644;28;20057;-82
2023/04/19 03:18:34;;;;;;;16.27;11.02;;;6.50;99.90;;;;;;5031271;28;20057;-82
2023/04/19 03:21:00;;;;;;;16.52;10.80;;;6.40;99.90;;;;;;5016211;28;20068;-83
2023/04/19 03:23:26;;;;;;;15.38;10.48;;;6.40;99.90;;;;;;5032448;28;20061;-82
2023/04/19 03:25:52;;;;;;;14.73;9.95;;;6.30;99.90;;;;;;5032521;28;20055;-82
2023/04/19 03:28:18;;;;;;;14.23;10.07;;;6.30;99.90;;;;;;5031949;28;20128;-81
2023/04/19 03:30:43;;;;;;;13.98;10.32;;;6.20;99.90;;;;;;4999673;28;20088;-81
2023/04/19 03:33:09;;;;;;;14.38;9.93;;;6.20;99.90;;;;;;5015776;28;20053;-81
2023/04/19 03:35:35;;;;;;;15.95;9.93;;;6.20;99.90;;;;;;5032474;28;20103;-81
2023/04/19 03:38:01;;;;;;;14.32;9.63;;;6.10;99.90;;;;;;5032443;28;20396;-82
2023/04/19 03:40:26;;;;;;;14.32;9.70;;;6.10;99.90;;;;;;5032150;28;20050;-82
2023/04/19 03:42:52;;;;;;;14.63;9.57;;;6.10;99.90;;;;;;5032369;28;20042;-81
2023/04/19 03:45:18;;;;;;;14.20;9.55;;;6.10;99.90;;;;;;5015978;28;20603;-81
2023/04/19 03:47:44;;;;;;;13.20;8.93;;;6.10;99.90;;;;;;5032035;28;20084;-81
2023/04/19 03:50:10;;;;;;;14.25;9.75;;;6.00;99.90;;;;;;5015971;28;20050;-82
2023/04/19 03:52:36;;;;;;;14.02;9.90;;;6.00;99.90;;;;;;5015679;28;20038;-82
2023/04/19 03:55:02;;;;;;;15.27;9.68;;;5.90;99.90;;;;;;4999513;28;20045;-82
2023/04/19 04:00:50;;;;;;;14.77;9.60;;;5.80;99.90;;;;;;5032636;28;20048;-81
2023/04/19 04:03:16;;;;;;;15.10;10.48;;;5.80;99.90;;;;;;5032094;28;20045;-79
2023/04/19 04:05:42;;;;;;;14.63;9.45;;;5.70;99.90;;;;;;5031752;28;20069;-80
2023/04/19 04:08:08;;;;;;;16.35;10.10;;;5.60;99.90;;;;;;5032024;28;20057;-79
2023/04/19 04:10:34;;;;;;;14.07;9.05;;;5.60;99.90;;;;;;5031883;28;20397;-80
2023/04/19 04:12:59;;;;;;;14.82;10.05;;;5.60;99.90;;;;;;4999444;28;20049;-79
2023/04/19 04:15:25;;;;;;;13.85;8.95;;;5.60;99.90;;;;;;4999369;28;20440;-79
2023/04/19 04:17:51;;;;;;;14.73;9.65;;;5.60;99.90;;;;;;5031786;28;20049;-80
2023/04/19 04:20:17;;;;;;;14.80;9.70;;;5.50;99.90;;;;;;5031442;28;20053;-79
2023/04/19 04:22:44;;;;;;;14.00;9.57;;;5.50;99.90;;;;;;5031934;28;20089;-80
2023/04/19 04:25:11;;;;;;;14.35;9.70;;;5.40;99.90;;;;;;5015643;28;20056;-79
2023/04/19 04:27:38;;;;;;;13.77;10.00;;;5.30;99.90;;;;;;5015427;28;20077;-80
2023/04/19 04:30:05;;;;;;;13.13;9.27;;;5.30;99.90;;;;;;5034438;28;20523;-80
2023/04/19 04:32:34;;;;;;;15.80;10.70;;;5.30;99.90;;;;;;5019183;28;20077;-81
2023/04/19 04:35:04;;;;;;;14.38;9.98;;;5.30;99.90;;;;;;5003300;28;20061;-81
2023/04/19 04:37:34;;;;;;;14.15;9.82;;;5.30;99.90;;;;;;5035509;28;20053;-81
2023/04/19 04:40:00;;;;;;;14.30;9.10;;;5.20;99.90;;;;;;5035222;28;20046;-81
2023/04/19 04:42:26;;;;;;;14.68;9.70;;;5.30;99.90;;;;;;5035389;28;20076;-80
2023/04/19 04:44:56;;;;;;;14.70;9.38;;;5.20;99.90;;;;;;5002499;28;20041;-81
2023/04/19 04:47:22;;;;;;;14.68;8.60;;;5.20;99.90;;;;;;5035229;28;20045;-78
2023/04/19 04:49:48;;;;;;;14.02;8.60;;;5.30;99.90;;;;;;5035352;28;20111;-82
2023/04/19 04:52:16;;;;;;;13.65;8.88;;;5.20;99.90;;;;;;5034432;28;20041;-79
2023/04/19 04:54:42;;;;;;;15.25;8.30;;;5.20;99.90;;;;;;5034777;28;20041;-79
2023/04/19 04:57:07;;;;;;;14.55;8.77;;;5.30;99.90;;;;;;5035125;28;20057;-79
2023/04/19 04:59:33;;;;;;;13.30;8.30;;;5.30;99.90;;;;;;5035151;28;20057;-80
2023/04/19 05:01:59;;;;;;;14.43;8.63;;;5.30;99.90;;;;;;5018660;28;20064;-79
2023/04/19 05:04:25;;;;;;;13.95;8.45;;;5.20;99.90;;;;;;5034957;28;20162;-79
2023/04/19 05:06:51;;;;;;;15.48;8.40;;;5.30;99.90;;;;;;5017877;28;20054;-79
2023/04/19 05:09:16;;;;;;;13.15;8.23;;;5.20;99.90;;;;;;5034974;28;20068;-79
2023/04/19 05:11:42;;;;;;;13.90;7.93;;;5.20;99.90;;;;;;5034866;28;20050;-79
2023/04/19 05:14:08;;;;;;;12.90;7.80;;;5.30;99.90;;;;;;5018362;28;20505;-79
2023/04/19 05:16:34;;;;;;;12.65;8.75;;;5.30;99.90;;;;;;5034407;28;20103;-79
2023/04/19 05:18:59;;;;;;;12.88;7.53;;;5.30;99.90;;;;;;5033862;28;20053;-79
2023/04/19 05:21:25;;;;;;;13.05;8.27;;;5.30;99.90;;;;;;5017862;28;20064;-80
2023/04/19 05:23:52;;;;;;;13.25;8.15;;;5.30;99.90;;;;;;5034316;28;20054;-79
2023/04/19 05:26:18;;;;;;;11.77;7.90;;;5.40;99.90;;;;;;5034359;28;20041;-80
2023/04/19 05:28:44;;;;;;;12.45;7.57;;;5.50;99.90;;;;;;5033774;28;20511;-80
2023/04/19 05:31:11;;;;;;;11.82;7.82;;;5.50;99.90;;;;;;5034479;28;20136;-80
2023/04/19 05:33:36;;;;;;;12.95;8.15;;;5.60;99.90;;;;;;5017777;28;20420;-79
2023/04/19 05:36:02;;;;;;;12.82;7.78;;;5.70;99.90;;;;;;5034456;28;20115;-80
2023/04/19 05:38:28;;;;;;;10.95;7.18;;;5.70;99.90;;;;;;5017955;28;20045;-81
2023/04/19 05:40:54;;;;;;;11.95;7.13;;;5.80;99.90;;;;;;5033158;28;20053;-80
2023/04/19 05:43:20;;;;;;;11.93;6.60;;;5.80;99.90;;;;;;5034382;28;20500;-80
2023/04/19 05:45:49;;;;;;;11.43;7.00;;;5.90;99.90;;;;;;5017991;28;20390;-80
2023/04/19 05:48:14;;;;;;;9.80;6.75;;;5.90;99.90;;;;;;5033934;28;20068;-80
2023/04/19 05:50:41;;;;;;;11.00;6.80;;;6.00;99.90;;;;;;5034288;28;20037;-81
2023/04/19 05:53:07;;;;;;;11.25;6.18;;;6.10;99.90;;;;;;5017572;28;20049;-80
2023/04/19 05:55:32;;;;;;;10.00;6.50;;;6.20;99.90;;;;;;5017706;28;20056;-81
2023/04/19 05:57:58;;;;;;;12.20;6.50;;;6.30;99.90;;;;;;5017503;28;20049;-82
2023/04/19 06:00:24;;;;;;;9.68;6.35;;;6.70;99.90;;;;;;5017458;28;20049;-82
2023/04/19 06:02:49;;;;;;;9.43;5.80;;;7.00;99.90;;;;;;5001194;28;20409;-81
2023/04/19 06:05:15;;;;;;;9.80;5.60;;;7.20;99.90;;;;;;5033913;28;20085;-82
2023/04/19 06:07:41;;;;;;;11.50;5.55;;;7.40;99.90;;;;;;5033284;28;20458;-82
2023/04/19 06:10:08;;;;;;;9.98;5.10;;;7.80;99.90;;;;;;5000893;28;20037;-84
2023/04/19 06:12:33;;;;;;;9.07;4.85;;;7.90;99.90;;;;;;5017312;28;20053;-82
2023/04/19 06:14:59;;;;;;;9.05;4.75;;;8.10;99.90;;;;;;5017272;28;20397;-84
2023/04/19 06:17:25;;;;;;;10.40;4.75;;;8.30;99.90;;;;;;5000879;28;20041;-83
2023/04/19 06:19:51;;;;;;;8.50;4.82;;;8.50;99.90;;;;;;5033197;28;20137;-82
2023/04/19 06:22:17;;;;;;;8.25;4.50;;;8.70;99.90;;;;;;5016516;28;20093;-82
2023/04/19 06:24:47;;;;;;;9.07;4.35;;;9.00;99.90;;;;;;5033521;28;20087;-82
2023/04/19 06:27:15;;;;;;;8.05;4.97;;;9.20;99.00;;;;;;5016983;28;20081;-82
2023/04/19 06:29:41;;;;;;;10.43;4.80;;;9.60;99.40;;;;;;5032867;28;20045;-83
2023/04/19 06:32:07;;;;;;;8.55;4.80;;;9.40;99.00;;;;;;5033300;28;20053;-84
2023/04/19 06:34:33;;;;;;;8.00;4.28;;;9.70;99.50;;;;;;4997524;28;20076;-82
2023/04/19 06:36:59;;;;;;;8.18;4.10;;;9.60;96.80;;;;;;4997028;28;20421;-83
2023/04/19 06:39:26;;;;;;;7.40;3.63;;;9.60;96.50;;;;;;4997336;28;20049;-82
2023/04/19 06:41:54;;;;;;;6.88;3.40;;;9.80;96.00;;;;;;4997616;28;20438;-83
2023/04/19 06:44:20;;;;;;;7.88;4.10;;;9.60;96.40;;;;;;5012816;28;20045;-85
2023/04/19 06:46:46;;;;;;;7.28;3.80;;;9.60;95.80;;;;;;4997153;28;20050;-85
2023/04/19 06:49:12;;;;;;;8.40;4.30;;;9.80;98.10;;;;;;5012870;28;20100;-86
2023/04/19 06:51:38;;;;;;;8.68;3.63;;;9.90;95.00;;;;;;4997430;28;20049;-85
2023/04/19 06:54:05;;;;;;;7.05;3.83;;;10.30;94.60;;;;;;4997221;28;20046;-86
2023/04/19 06:56:47;;;;;;;8.65;3.72;;;10.60;92.60;;;;;;5013571;28;20472;-84
2023/04/19 06:59:15;;;;;;;;;;;10.50;94.10;;;;;;5013782;28;20057;-82
2023/04/19 07:01:41;;;;;;;7.10;3.30;;;10.80;92.10;;;;;;5013801;28;19921;-85
2023/04/19 07:04:08;;;;;;;6.90;3.75;;;10.80;91.10;;;;;;5012917;28;20046;-84
2023/04/19 07:06:35;;;;;;;7.35;3.50;;;10.60;91.70;;;;;;5012896;28;20046;-84
2023/04/19 07:09:01;;;;;;;8.88;3.40;;;10.60;92.30;;;;;;4980538;28;20049;-80
2023/04/19 09:36:26;;;;;;;6.63;2.30;;;14.80;53.90;;;;;;5258645;23;20105;-85
2023/04/19 09:38:52;;;;;;;5.72;2.20;;;14.40;53.70;;;;;;5025334;28;20046;-87
2023/04/19 09:41:17;;;;;;;4.68;2.20;;;14.40;54.60;;;;;;5021319;28;20049;-86
2023/04/19 09:43:44;;;;;;;6.35;2.22;;;14.30;55.00;;;;;;4968284;28;20385;-87
2023/04/19 09:46:33;;;;;;;4.90;2.10;;;14.40;54.90;;;;;;5000812;28;20058;-85
2023/04/19 09:49:18;;;;;;;5.85;2.22;;;14.40;55.00;;;;;;5002421;28;20041;-87
2023/04/19 09:51:46;;;;;;;5.40;2.40;;;14.50;53.20;;;;;;5022369;28;20050;-87
2023/04/19 09:54:13;;;;;;;3.92;1.90;;;14.70;50.80;;;;;;5003282;28;20108;-86
2023/04/19 09:56:40;;;;;;;6.70;2.00;;;14.50;50.40;;;;;;5006336;28;20128;-85
2023/04/19 09:59:07;;;;;;;4.47;2.10;;;14.70;48.40;;;;;;5005915;28;20137;-87
2023/04/19 10:01:47;;;;;;;5.28;2.10;;;14.80;50.40;;;;;;5005978;28;20084;-89
2023/04/19 10:04:20;;;;;;;4.95;1.95;;;14.60;49.50;;;;;;4989897;28;20056;-86
2023/04/19 10:06:48;;;;;;;4.03;1.60;;;14.30;49.40;;;;;;4990599;28;20093;-86
2023/04/19 10:09:14;;;;;;;5.50;2.25;;;14.30;49.00;;;;;;5004481;28;20485;-87
2023/04/19 10:11:46;;;;;;;4.95;2.10;;;14.40;50.90;;;;;;5004349;28;20054;-87
2023/04/19 10:14:14;;;;;;;5.88;1.90;;;14.50;50.40;;;;;;5003406;28;20049;-86
2023/04/19 10:16:40;;;;;;;6.05;2.08;;;14.90;48.60;;;;;;4990270;28;20074;-88
2023/04/19 10:19:09;;;;;;;4.32;1.83;;;15.10;47.90;;;;;;5003048;28;20435;-88
2023/04/19 10:21:37;;;;;;;5.82;1.80;;;15.30;45.50;;;;;;5017642;28;20050;-87
2023/04/19 10:24:04;;;;;;;4.97;2.00;;;15.10;44.90;;;;;;5001334;28;20089;-88
2023/04/19 10:26:49;;;;;;;4.57;2.00;;;15.00;46.80;;;;;;5020004;28;20048;-88
2023/04/19 10:29:35;;;;;;;5.47;1.90;;;15.00;46.40;;;;;;5023920;28;20038;-88
2023/04/19 10:32:04;;;;;;;5.97;2.08;;;15.20;45.80;;;;;;5061174;23;20064;-86
2023/04/19 10:34:38;;;;;;;5.97;1.92;;;15.00;43.90;;;;;;5025039;28;20119;-87
2023/04/19 10:37:05;;;;;;;5.93;1.90;;;15.20;45.20;;;;;;5025221;28;20058;-86
2023/04/19 10:39:43;;;;;;;4.85;1.88;;;14.40;44.60;;;;;;5024045;28;20054;-87
2023/04/19 10:42:09;;;;;;;4.63;1.90;;;14.70;44.00;;;;;;5018562;28;20093;-86
2023/04/19 10:44:35;;;;;;;6.15;1.92;;;15.20;43.30;;;;;;5022650;28;20053;-86
2023/04/19 10:47:04;;;;;;;4.88;1.88;;;15.60;44.70;;;;;;5021706;28;20069;-86
2023/04/19 10:49:30;;;;;;;5.68;2.08;;;15.80;43.60;;;;;;5014645;28;20046;-84
2023/04/19 10:51:58;;;;;;;4.72;1.80;;;15.30;41.40;;;;;;4983949;28;20057;-86
2023/04/19 10:54:33;;;;;;;4.28;1.70;;;15.40;41.50;;;;;;5001011;28;20104;-85
2023/04/19 10:57:04;;;;;;;4.18;1.70;;;15.30;41.40;;;;;;4998899;28;20046;-83
2023/04/19 10:59:41;;;;;;;3.95;1.80;;;15.40;42.20;;;;;;5015329;28;20133;-83
2023/04/19 11:02:23;;;;;;;5.10;1.98;;;15.60;44.30;;;;;;5013402;28;20049;-84
2023/04/19 11:04:52;;;;;;;5.57;1.90;;;15.20;42.80;;;;;;5016025;28;20030;-86
2023/04/19 11:07:20;;;;;;;5.05;1.60;;;15.50;43.30;;;;;;5013987;28;20054;-86
2023/04/19 11:09:46;;;;;;;4.20;1.80;;;15.70;44.00;;;;;;5013111;28;20482;-83
2023/04/19 11:12:14;;;;;;;4.18;1.92;;;15.20;43.20;;;;;;4996521;28;20404;-83
2023/04/19 11:14:43;;;;;;;4.80;1.92;;;15.30;44.00;;;;;;5013131;28;20045;-84
2023/04/19 11:24:54;;;;;;;6.43;2.08;;;15.80;44.10;;;;;;5025373;22;20408;-83
2023/04/19 11:27:20;;;;;;;4.93;2.30;;;15.60;45.10;;;;;;4996197;28;20045;-84
2023/04/19 11:29:46;;;;;;;4.57;2.15;;;15.50;44.30;;;;;;5012911;28;20046;-83
2023/04/19 11:32:12;;;;;;;7.32;2.30;;;15.40;46.70;;;;;;4997183;28;20053;-84
2023/04/19 11:34:39;;;;;;;5.40;2.35;;;15.30;45.50;;;;;;4996293;28;20107;-85
2023/04/19 11:37:05;;;;;;;5.43;2.33;;;15.00;45.00;;;;;;5012887;28;20121;-85
2023/04/19 11:39:30;;;;;;;5.85;2.40;;;15.00;45.60;;;;;;4998315;28;20133;-84
2023/04/19 11:41:57;;;;;;;5.80;2.67;;;15.00;46.30;;;;;;5018695;28;20081;-87
2023/04/19 11:44:23;;;;;;;5.90;2.65;;;14.60;45.90;;;;;;5016929;28;20469;-86
2023/04/19 11:47:00;;;;;;;4.72;2.40;;;14.90;47.80;;;;;;5018123;28;20088;-86
2023/04/19 11:49:32;;;;;;;6.25;2.10;;;15.10;47.20;;;;;;5020232;28;20048;-87
2023/04/19 11:52:00;;;;;;;5.35;2.60;;;15.60;47.80;;;;;;5014765;28;20066;-87
2023/04/19 11:54:26;;;;;;;6.03;2.40;;;15.70;47.80;;;;;;4997683;28;20478;-85
2023/04/19 11:57:06;;;;;;;6.22;2.78;;;15.70;49.00;;;;;;4981594;28;20058;-86
2023/04/19 11:59:34;;;;;;;5.88;2.60;;;15.70;50.10;;;;;;4969827;28;20516;-86
2023/04/19 12:02:06;;;;;;;5.60;2.70;;;16.00;48.40;;;;;;4997328;28;20097;-86
2023/04/19 12:04:32;;;;;;;6.50;3.05;;;15.90;49.90;;;;;;5002736;28;20050;-86
2023/04/19 12:07:00;;;;;;;6.57;2.88;;;15.80;49.70;;;;;;4984874;28;20065;-87
2023/04/19 12:09:26;;;;;;;6.32;2.80;;;15.60;51.20;;;;;;5004289;28;20050;-85
2023/04/19 12:11:52;;;;;;;8.35;3.20;;;15.80;51.70;;;;;;4982469;28;20061;-85
2023/04/19 12:14:21;;;;;;;6.28;2.97;;;15.50;49.60;;;;;;4987951;28;20137;-87
2023/04/19 12:17:10;;;;;;;5.28;3.13;;;15.80;49.70;;;;;;5002914;28;20046;-84
2023/04/19 12:19:41;;;;;;;5.88;3.28;;;15.60;51.30;;;;;;5001800;28;20042;-88
2023/04/19 12:22:12;;;;;;;6.38;3.20;;;15.60;52.10;;;;;;5003919;28;20042;-87
2023/04/19 12:24:39;;;;;;;8.15;3.50;;;15.50;53.10;;;;;;5003803;28;20429;-85
2023/04/19 12:27:08;;;;;;;6.05;3.58;;;15.40;53.50;;;;;;5003922;28;20136;-90
2023/04/19 12:29:34;;;;;;;6.43;3.70;;;15.50;53.50;;;;;;5004556;28;20054;-88
2023/04/19 12:32:01;;;;;;;6.03;3.30;;;15.20;52.90;;;;;;5004399;28;20042;-90
2023/04/19 12:34:27;;;;;;;7.13;3.47;;;15.40;55.30;;;;;;5014192;28;20053;-89
2023/04/19 12:36:56;;;;;;;7.22;3.35;;;15.20;53.50;;;;;;5043216;28;20065;-90
2023/04/19 12:39:22;;;;;;;5.78;3.40;;;15.00;53.50;;;;;;5012148;28;20065;-90
2023/04/19 12:41:48;;;;;;;6.00;3.35;;;14.90;52.90;;;;;;5014666;28;20049;-89
2023/04/19 12:44:15;;;;;;;5.70;3.17;;;15.10;54.90;;;;;;5029014;28;20045;-89
2023/04/19 12:46:40;;;;;;;5.93;3.35;;;15.40;55.80;;;;;;5044795;28;20053;-89
2023/04/19 12:49:06;;;;;;;12.32;3.38;;;15.40;52.80;;;;;;5008805;28;20047;-90
2023/04/19 12:51:32;;;;;;;6.10;3.40;;;15.30;53.20;;;;;;5025077;28;20144;-89
2023/04/19 12:53:58;;;;;;;7.10;3.70;;;15.60;53.40;;;;;;5024801;28;20508;-88
2023/04/19 12:56:25;;;;;;;6.20;3.00;;;15.40;53.80;;;;;;5027681;28;20057;-88
2023/04/19 12:58:51;;;;;;;6.47;3.05;;;15.30;54.90;;;;;;5016105;28;20065;-88
2023/04/19 13:01:17;;;;;;;5.50;3.30;;;15.50;54.30;;;;;;5028472;28;20097;-88
2023/04/19 13:03:43;;;;;;;5.65;3.20;;;15.30;52.50;;;;;;5009457;28;20053;-88
2023/04/19 13:06:12;;;;;;;6.43;3.47;;;15.70;51.90;;;;;;5021402;28;20054;-86
2023/04/19 13:08:38;;;;;;;7.55;3.40;;;15.10;53.20;;;;;;5021870;28;20084;-87
2023/04/19 13:11:03;;;;;;;6.78;3.42;;;15.20;53.00;;;;;;5008716;28;20042;-89
2023/04/19 13:13:29;;;;;;;5.60;3.50;;;15.20;54.00;;;;;;4969948;28;20132;-88
2023/04/19 13:15:55;;;;;;;6.40;3.38;;;15.00;52.80;;;;;;4990314;28;20092;-87
2023/04/19 13:18:21;;;;;;;6.00;2.47;;;15.00;53.10;;;;;;5009253;28;20053;-87
2023/04/19 13:20:47;;;;;;;5.18;2.92;;;15.10;54.40;;;;;;5007539;28;20057;-86
2023/04/19 13:23:14;;;;;;;4.25;1.90;;;15.20;52.30;;;;;;5020457;28;20050;-88
2023/04/19 13:25:39;;;;;;;7.07;3.53;;;15.10;51.20;;;;;;4983029;28;20059;-86
2023/04/19 13:28:05;;;;;;;6.47;3.22;;;15.00;51.20;;;;;;4981721;28;20098;-88
2023/04/19 13:30:31;;;;;;;5.68;3.10;;;14.90;52.50;;;;;;5009160;28;20136;-88
2023/04/19 13:32:57;;;;;;;7.15;3.05;;;14.90;52.00;;;;;;5009412;28;20099;-89
2023/04/19 13:35:23;;;;;;;6.45;3.00;;;15.10;52.50;;;;;;5019215;28;20045;-88
2023/04/19 13:37:50;;;;;;;5.65;2.80;;;15.20;52.40;;;;;;5005439;28;20064;-89
2023/04/19 13:40:15;;;;;;;8.10;3.10;;;15.30;51.40;;;;;;5036788;28;20049;-89
2023/04/19 13:42:41;;;;;;;6.45;3.20;;;15.30;51.70;;;;;;5022140;28;20045;-88
2023/04/19 13:45:11;;;;;;;5.38;2.85;;;15.10;52.20;;;;;;5038464;28;20056;-90
2023/04/19 13:47:36;;;;;;;7.07;3.40;;;15.00;51.60;;;;;;5022803;28;20049;-88
2023/04/19 13:50:02;;;;;;;6.13;3.30;;;14.90;51.80;;;;;;5003227;28;20076;-87
2023/04/19 13:52:28;;;;;;;7.75;3.00;;;15.00;52.30;;;;;;4999881;28;20050;-88
2023/04/19 13:54:54;;;;;;;7.90;3.22;;;15.00;52.00;;;;;;5017243;28;20048;-88
2023/04/19 13:57:20;;;;;;;6.50;3.05;;;15.00;51.80;;;;;;5013266;28;20313;-88
2023/04/19 13:59:45;;;;;;;6.90;3.00;;;14.90;51.40;;;;;;5015114;28;20046;-88
2023/04/19 14:02:11;;;;;;;6.20;2.90;;;14.90;50.40;;;;;;5013460;28;20054;-88
2023/04/19 14:04:37;;;;;;;6.07;2.90;;;15.00;52.80;;;;;;4982117;28;20052;-87
2023/04/19 14:07:02;;;;;;;6.03;3.00;;;15.10;52.80;;;;;;4986028;28;20049;-87
2023/04/19 14:09:28;;;;;;;7.47;3.40;;;15.10;52.10;;;;;;5015659;28;20440;-87
2023/04/19 14:11:54;;;;;;;5.32;2.80;;;15.00;51.90;;;;;;5017540;28;20106;-89
2023/04/19 14:14:20;;;;;;;6.72;3.38;;;15.00;50.90;;;;;;5016589;28;20054;-88
2023/04/19 14:16:46;;;;;;;5.82;3.00;;;15.10;50.90;;;;;;5017224;28;20049;-88
2023/04/19 14:19:11;;;;;;;6.30;3.20;;;15.10;50.90;;;;;;4997882;28;20061;-86
2023/04/19 14:21:37;;;;;;;7.32;3.10;;;15.00;52.10;;;;;;5000274;28;20064;-87
2023/04/19 14:24:03;;;;;;;5.75;2.95;;;15.10;51.90;;;;;;5014231;28;20060;-89
2023/04/19 14:26:29;;;;;;;5.10;2.92;;;15.00;51.20;;;;;;4981518;28;20401;-87
2023/04/19 14:28:55;;;;;;;5.55;2.85;;;15.00;51.20;;;;;;5016450;28;20041;-88
2023/04/19 14:31:20;;;;;;;7.20;2.63;;;14.80;51.90;;;;;;5015344;28;20390;-88
2023/04/19 14:33:46;;;;;;;6.15;2.90;;;14.90;52.70;;;;;;5017896;28;20049;-86
2023/04/19 14:36:13;;;;;;;5.85;2.88;;;15.00;51.30;;;;;;5002841;28;20444;-89
2023/04/19 14:38:39;;;;;;;5.35;2.80;;;15.10;51.10;;;;;;5017880;28;20492;-88
2023/04/19 14:41:05;;;;;;;4.80;2.55;;;15.00;50.80;;;;;;5019026;28;20085;-88
2023/04/19 14:43:32;;;;;;;5.80;2.60;;;15.10;52.30;;;;;;5018382;28;20050;-88
2023/04/19 14:46:00;;;;;;;5.05;2.60;;;15.10;51.20;;;;;;5003783;28;20050;-87
2023/04/19 14:48:26;;;;;;;7.80;2.58;;;14.90;49.70;;;;;;4999430;28;20038;-87
2023/04/19 14:50:55;;;;;;;7.13;2.50;;;14.50;49.50;;;;;;5013886;28;20054;-87
2023/04/19 14:53:21;;;;;;;5.90;2.67;;;14.30;50.70;;;;;;4999730;28;20448;-88
2023/04/19 14:55:47;;;;;;;5.50;2.78;;;14.30;51.40;;;;;;4982430;28;20100;-87
2023/04/19 14:58:13;;;;;;;5.25;2.30;;;14.50;51.70;;;;;;5015148;28;20057;-88
2023/04/19 15:00:38;;;;;;;5.28;2.60;;;14.70;50.90;;;;;;4999725;28;20096;-89
2023/04/19 15:03:04;;;;;;;5.18;2.40;;;14.80;51.60;;;;;;5017448;28;20048;-88
2023/04/19 15:05:36;;;;;;;7.15;2.45;;;14.60;51.20;;;;;;4998074;28;20079;-87
2023/04/19 15:08:02;;;;;;;6.05;2.40;;;14.50;50.80;;;;;;5014409;28;20184;-88
2023/04/19 15:10:27;;;;;;;4.75;2.40;;;14.70;51.80;;;;;;4983662;28;20092;-88
2023/04/19 15:12:54;;;;;;;6.05;2.50;;;14.90;50.80;;;;;;4998351;28;20511;-88
2023/04/19 15:15:20;;;;;;;5.80;2.30;;;14.60;50.60;;;;;;5014569;28;20037;-87
2023/04/19 15:17:46;;;;;;;6.47;2.75;;;14.40;50.70;;;;;;5014546;28;20057;-88
2023/04/19 15:20:12;;;;;;;5.13;2.60;;;14.30;50.50;;;;;;5013951;28;20045;-87